createdAt,value
2022-09-23T00:03:03.167Z,87.96
2022-09-23T00:08:06.462Z,88.19
2022-09-23T00:13:07.957Z,88.24
2022-09-23T00:18:09.654Z,88.17
2022-09-23T00:23:11.286Z,88.37
2022-09-23T00:28:12.733Z,88.29
2022-09-23T00:33:14.185Z,88.28
2022-09-23T00:38:15.798Z,88.55
2022-09-23T00:43:17.445Z,88.53
2022-09-23T00:48:20.803Z,88.56
2022-09-23T00:53:26.511Z,88.60
2022-09-23T00:58:31.506Z,88.67
2022-09-23T01:03:33.005Z,88.71
2022-09-23T01:08:34.663Z,88.71
2022-09-23T01:13:47.649Z,88.74
2022-09-23T01:24:48.090Z,89.04
2022-09-23T01:29:58.542Z,89.11
2022-09-23T01:35:22.530Z,89.18
2022-09-23T01:40:30.366Z,89.32
2022-09-23T01:45:47.935Z,89.46
2022-09-23T01:51:19.132Z,89.14
2022-09-23T01:56:26.566Z,89.50
2022-09-23T02:01:47.165Z,89.55
2022-09-23T02:06:52.284Z,89.69
2022-09-23T02:12:00.670Z,89.63
2022-09-23T02:17:10.603Z,89.67
2022-09-23T02:22:27.888Z,89.64
2022-09-23T02:27:57.042Z,89.79
2022-09-23T02:33:08.417Z,90.11
2022-09-23T02:38:26.275Z,89.98
2022-09-23T02:43:35.689Z,89.95
2022-09-23T02:48:50.938Z,89.96
2022-09-23T02:53:56.267Z,90.00
2022-09-23T02:58:58.362Z,89.98
2022-09-23T03:04:09.543Z,90.08
2022-09-23T03:09:22.268Z,90.07
2022-09-23T03:14:49.398Z,90.13
2022-09-23T03:20:14.672Z,90.15
2022-09-23T03:25:22.217Z,90.39
2022-09-23T03:30:25.219Z,90.50
2022-09-23T03:35:30.595Z,90.60
2022-09-23T03:40:43.226Z,90.51
2022-09-23T03:45:46.245Z,90.71
2022-09-23T03:50:49.013Z,90.68
2022-09-23T03:55:50.466Z,90.59
2022-09-23T04:00:54.584Z,90.71
2022-09-23T04:05:56.532Z,90.50
2022-09-23T04:11:02.382Z,90.38
2022-09-23T04:16:05.164Z,90.39
2022-09-23T04:21:07.852Z,90.26
2022-09-23T04:26:10.204Z,90.08
2022-09-23T04:31:12.269Z,89.82
2022-09-23T04:36:14.396Z,89.76
2022-09-23T04:41:18.255Z,89.87
2022-09-23T04:46:20.689Z,89.86
2022-09-23T04:51:24.673Z,89.79
2022-09-23T04:56:29.153Z,89.91
2022-09-23T05:01:34.446Z,90.07
2022-09-23T05:06:37.034Z,89.85
2022-09-23T05:11:39.662Z,90.10
2022-09-23T05:16:41.837Z,90.12
2022-09-23T05:21:44.189Z,90.30
2022-09-23T05:26:45.659Z,90.34
2022-09-23T05:31:47.888Z,90.29
2022-09-23T05:36:49.855Z,90.42
2022-09-23T05:41:53.572Z,90.74
2022-09-23T05:46:55.144Z,90.79
2022-09-23T05:51:56.778Z,90.68
2022-09-23T05:57:00.294Z,90.77
2022-09-23T06:02:04.617Z,90.97
2022-09-23T06:07:06.279Z,90.91
2022-09-23T06:12:08.041Z,91.13
2022-09-23T06:17:09.524Z,91.13
2022-09-23T06:22:11.800Z,91.34
2022-09-23T06:27:13.899Z,91.29
2022-09-23T06:32:16.180Z,91.34
2022-09-23T06:37:20.485Z,90.74
2022-09-23T06:42:22.195Z,90.27
2022-09-23T06:47:23.759Z,89.82
2022-09-23T06:52:26.530Z,89.06
2022-09-23T06:57:31.761Z,88.40
2022-09-23T07:02:33.387Z,87.70
2022-09-23T07:07:39.365Z,87.07
2022-09-23T07:12:41.133Z,86.41
2022-09-23T07:17:42.956Z,85.69
2022-09-23T07:22:49.359Z,84.49
2022-09-23T07:27:50.837Z,79.19
2022-09-23T07:32:53.147Z,72.13
2022-09-23T07:37:54.677Z,67.38
2022-09-23T07:42:56.624Z,65.12
2022-09-23T07:47:58.346Z,64.66
2022-09-23T07:53:01.578Z,64.95
2022-09-23T07:58:03.186Z,65.88
2022-09-23T08:03:04.726Z,67.05
2022-09-23T08:08:07.430Z,67.32
2022-09-23T08:13:09.726Z,67.24
2022-09-23T08:18:11.287Z,66.95
2022-09-23T08:23:16.058Z,67.13
2022-09-23T08:28:19.100Z,66.38
2022-09-23T08:33:23.578Z,65.76
2022-09-23T08:38:25.496Z,66.01
2022-09-23T08:43:29.882Z,66.04
2022-09-23T08:48:47.608Z,66.55
2022-09-23T08:53:49.344Z,66.46
2022-09-23T08:59:14.733Z,67.22
2022-09-23T09:04:22.018Z,67.23
2022-09-23T09:09:34.759Z,67.20
2022-09-23T09:15:01.419Z,66.92
2022-09-23T09:20:03.308Z,66.81
2022-09-23T09:25:53.943Z,66.30
2022-09-23T09:31:01.984Z,65.76
2022-09-23T09:36:09.561Z,65.21
2022-09-23T09:41:24.474Z,65.10
2022-09-23T09:46:30.487Z,64.60
2022-09-23T09:51:32.355Z,63.52
2022-09-23T09:56:36.114Z,63.05
2022-09-23T10:01:38.010Z,62.76
2022-09-23T10:06:39.522Z,61.56
2022-09-23T10:11:42.244Z,61.24
2022-09-23T10:16:46.527Z,60.82
2022-09-23T10:21:58.544Z,60.46
2022-09-23T10:27:04.387Z,59.34
2022-09-23T10:32:30.529Z,59.68
2022-09-23T10:37:44.980Z,58.49
2022-09-23T10:43:19.305Z,58.20
2022-09-23T10:49:02.226Z,57.21
2022-09-23T10:54:38.124Z,57.18
2022-09-23T10:59:48.845Z,57.29
2022-09-23T11:05:18.669Z,57.54
2022-09-23T11:11:11.322Z,57.22
2022-09-23T11:16:22.024Z,56.94
2022-09-23T11:21:47.671Z,56.84
2022-09-23T11:27:07.318Z,57.78
2022-09-23T11:32:27.531Z,56.95
2022-09-23T11:37:40.064Z,56.26
2022-09-23T11:42:54.074Z,56.35
2022-09-23T11:48:01.306Z,56.34
2022-09-23T11:53:18.162Z,56.57
2022-09-23T11:58:28.074Z,56.86
2022-09-23T12:04:12.497Z,57.13
2022-09-23T12:09:47.041Z,57.38
2022-09-23T12:15:22.592Z,57.30
2022-09-23T12:20:49.736Z,58.10
2022-09-23T12:25:57.044Z,57.98
2022-09-23T12:31:01.976Z,58.22
2022-09-23T12:36:12.249Z,58.76
2022-09-23T12:41:23.358Z,58.49
2022-09-23T12:46:27.535Z,58.91
2022-09-23T12:51:31.909Z,58.92
2022-09-23T12:56:36.486Z,59.33
2022-09-23T13:01:39.098Z,59.51
2022-09-23T13:06:42.771Z,59.30
2022-09-23T13:11:47.884Z,59.31
2022-09-23T13:16:50.378Z,59.17
2022-09-23T13:22:03.648Z,59.04
2022-09-23T13:27:31.210Z,59.34
2022-09-23T13:32:37.412Z,59.74
2022-09-23T13:37:48.888Z,60.40
2022-09-23T13:42:56.861Z,60.66
2022-09-23T13:48:06.123Z,61.14
2022-09-23T13:53:11.436Z,61.41
2022-09-23T13:58:21.919Z,62.84
2022-09-23T14:03:36.153Z,64.17
2022-09-23T14:08:49.745Z,64.97
2022-09-23T14:13:54.134Z,66.15
2022-09-23T14:19:00.467Z,67.38
2022-09-23T14:24:16.811Z,68.12
2022-09-23T14:29:26.682Z,68.91
2022-09-23T14:35:05.153Z,69.65
2022-09-23T14:40:16.750Z,70.45
2022-09-23T14:45:21.869Z,71.26
2022-09-23T14:50:47.237Z,71.54
2022-09-23T14:55:52.743Z,72.36
2022-09-23T15:00:56.875Z,73.29
2022-09-23T15:06:08.625Z,73.92
2022-09-23T15:11:11.286Z,74.75
2022-09-23T15:16:15.411Z,74.88
2022-09-23T15:21:21.229Z,75.43
2022-09-23T15:26:24.814Z,75.89
2022-09-23T15:31:26.543Z,76.24
2022-09-23T15:36:28.736Z,76.44
2022-09-23T15:41:33.813Z,76.99
2022-09-23T15:46:37.575Z,77.24
2022-09-23T15:51:39.646Z,77.44
2022-09-23T15:56:41.203Z,77.76
2022-09-23T16:01:45.901Z,78.15
2022-09-23T16:06:48.742Z,78.69
2022-09-23T16:11:51.962Z,78.93
2022-09-23T16:16:53.852Z,79.17
2022-09-23T16:21:55.384Z,79.41
2022-09-23T16:27:00.105Z,79.94
2022-09-23T16:32:02.148Z,80.05
2022-09-23T16:37:04.650Z,80.15
2022-09-23T16:42:06.467Z,80.42
2022-09-23T16:47:08.873Z,80.56
2022-09-23T16:52:13.482Z,80.74
2022-09-23T16:57:16.365Z,81.21
2022-09-23T17:02:37.177Z,81.26
2022-09-23T17:07:38.880Z,81.42
2022-09-23T17:12:40.748Z,81.50
2022-09-23T17:17:42.260Z,81.49
2022-09-23T17:22:43.780Z,81.83
2022-09-23T17:27:47.543Z,82.20
2022-09-23T17:32:49.085Z,82.52
2022-09-23T17:37:50.624Z,82.72
2022-09-23T17:42:53.572Z,83.04
2022-09-23T17:47:55.212Z,83.35
2022-09-23T17:53:00.120Z,83.67
2022-09-23T17:58:02.135Z,83.61
2022-09-23T18:03:03.747Z,84.01
2022-09-23T18:08:06.205Z,84.46
2022-09-23T18:13:07.800Z,84.77
2022-09-23T18:18:09.265Z,85.11
2022-09-23T18:23:10.928Z,85.55
2022-09-23T18:28:12.480Z,85.74
2022-09-23T18:33:15.172Z,85.99
2022-09-23T18:38:16.900Z,86.08
2022-09-23T18:43:19.925Z,86.37
2022-09-23T18:48:40.084Z,86.62
2022-09-23T18:53:41.920Z,86.80
2022-09-23T18:58:47.697Z,86.96
2022-09-23T19:03:56.227Z,87.08
2022-09-23T19:08:58.094Z,87.72
2022-09-23T19:14:01.847Z,88.01
2022-09-23T19:19:05.343Z,88.29
2022-09-23T19:24:07.992Z,88.45
2022-09-23T19:29:15.231Z,88.66
2022-09-23T19:34:23.651Z,88.85
2022-09-23T19:39:28.253Z,89.15
2022-09-23T19:44:32.513Z,89.08
2022-09-23T19:49:34.103Z,89.38
2022-09-23T19:54:40.222Z,89.81
2022-09-23T19:59:42.059Z,89.76
2022-09-23T20:04:43.809Z,89.81
2022-09-23T20:09:45.358Z,89.93
2022-09-23T20:14:47.116Z,89.98
2022-09-23T20:19:48.848Z,90.14
2022-09-23T20:24:51.185Z,90.28
2022-09-23T20:29:53.171Z,90.56
2022-09-23T20:34:56.547Z,90.70
2022-09-23T20:39:58.200Z,90.90
2022-09-23T20:44:59.812Z,91.04
2022-09-23T20:50:01.579Z,91.10
2022-09-23T21:03:29.665Z,91.45
2022-09-23T22:08:38.427Z,93.10
2022-09-23T22:14:32.864Z,93.33
2022-09-23T22:31:58.733Z,93.91
2022-09-23T22:37:01.343Z,93.88
2022-09-23T22:42:12.226Z,94.07
2022-09-23T22:47:14.901Z,94.11
